Terminal Aerodrome Forecast
Issued by NWS Wilmington, OH

Current Version | Previous Version | Graphics & Text | Print | Product List | Glossary On
Versions: 1 2 3 4 5 6 7 8 9 10 11 12 13 14 15 16 17 18 19 20 21 22 23
000
FTUS41 KILN 231338 AAB
TAFDAY
TAF AMD
KDAY 231338Z 2314/2412 22014G20KT 2SM SHRA BR OVC015
      TEMPO 2314/2316 3SM SHRA OVC008
     FM232000 23012KT P6SM VCSH OVC020
     FM232200 30009KT P6SM BKN010
     FM240400 29007KT P6SM SKC=

USA.gov is the U.S. government's official web portal to all federal, state and local government web resources and services.